sensor_id;sensor_type;location;lat;lon;timestamp;temperature;humidity
61412;DHT22;47278;49.732;7.690;2023-04-03T00:01:35;4.60;99.90
61412;DHT22;47278;49.732;7.690;2023-04-03T00:04:00;4.50;99.90
61412;DHT22;47278;49.732;7.690;2023-04-03T00:06:26;4.40;99.90
61412;DHT22;47278;49.732;7.690;2023-04-03T00:08:52;4.40;99.90
61412;DHT22;47278;49.732;7.690;2023-04-03T00:11:18;4.30;99.90
61412;DHT22;47278;49.732;7.690;2023-04-03T00:13:44;4.30;99.90
61412;DHT22;47278;49.732;7.690;2023-04-03T00:16:10;4.30;99.90
61412;DHT22;47278;49.732;7.690;2023-04-03T00:18:36;4.40;99.90
61412;DHT22;47278;49.732;7.690;2023-04-03T00:21:02;4.30;99.90
61412;DHT22;47278;49.732;7.690;2023-04-03T00:23:28;4.30;99.90
61412;DHT22;47278;49.732;7.690;2023-04-03T00:25:53;4.20;99.90
61412;DHT22;47278;49.732;7.690;2023-04-03T00:28:19;4.20;99.90
61412;DHT22;47278;49.732;7.690;2023-04-03T00:30:45;4.10;99.90
61412;DHT22;47278;49.732;7.690;2023-04-03T00:33:11;4.00;99.90
61412;DHT22;47278;49.732;7.690;2023-04-03T00:35:37;3.90;99.90
61412;DHT22;47278;49.732;7.690;2023-04-03T00:38:03;3.80;99.90
61412;DHT22;47278;49.732;7.690;2023-04-03T00:40:32;3.70;99.90
61412;DHT22;47278;49.732;7.690;2023-04-03T00:42:58;3.60;99.90
61412;DHT22;47278;49.732;7.690;2023-04-03T00:47:52;3.70;99.90
61412;DHT22;47278;49.732;7.690;2023-04-03T00:50:18;3.60;99.90
61412;DHT22;47278;49.732;7.690;2023-04-03T00:52:44;3.60;99.90
61412;DHT22;47278;49.732;7.690;2023-04-03T00:55:11;3.60;99.90
61412;DHT22;47278;49.732;7.690;2023-04-03T00:57:37;3.60;99.90
61412;DHT22;47278;49.732;7.690;2023-04-03T01:00:08;3.60;99.90
61412;DHT22;47278;49.732;7.690;2023-04-03T01:02:34;3.60;99.90
61412;DHT22;47278;49.732;7.690;2023-04-03T01:05:00;3.60;99.90
61412;DHT22;47278;49.732;7.690;2023-04-03T01:07:27;3.70;99.90
61412;DHT22;47278;49.732;7.690;2023-04-03T01:09:56;3.50;99.90
61412;DHT22;47278;49.732;7.690;2023-04-03T01:12:23;3.60;99.90
61412;DHT22;47278;49.732;7.690;2023-04-03T01:14:52;6.40;99.90
61412;DHT22;47278;49.732;7.690;2023-04-03T01:20:31;3.40;99.90
61412;DHT22;47278;49.732;7.690;2023-04-03T01:25:36;3.30;99.90
61412;DHT22;47278;49.732;7.690;2023-04-03T01:28:02;3.30;99.90
61412;DHT22;47278;49.732;7.690;2023-04-03T01:30:30;3.20;99.90
61412;DHT22;47278;49.732;7.690;2023-04-03T01:32:56;3.20;99.90
61412;DHT22;47278;49.732;7.690;2023-04-03T01:35:21;3.20;99.90
61412;DHT22;47278;49.732;7.690;2023-04-03T01:37:47;3.20;99.90
61412;DHT22;47278;49.732;7.690;2023-04-03T01:40:12;3.20;99.90
61412;DHT22;47278;49.732;7.690;2023-04-03T01:42:38;3.20;99.90
61412;DHT22;47278;49.732;7.690;2023-04-03T01:45:03;3.10;99.90
61412;DHT22;47278;49.732;7.690;2023-04-03T01:47:29;3.10;99.90
61412;DHT22;47278;49.732;7.690;2023-04-03T01:49:55;3.10;99.90
61412;DHT22;47278;49.732;7.690;2023-04-03T01:52:20;3.00;99.90
61412;DHT22;47278;49.732;7.690;2023-04-03T01:54:46;3.00;99.90
61412;DHT22;47278;49.732;7.690;2023-04-03T01:57:12;3.30;99.90
61412;DHT22;47278;49.732;7.690;2023-04-03T01:59:38;3.00;99.90
61412;DHT22;47278;49.732;7.690;2023-04-03T02:02:04;3.00;99.90
61412;DHT22;47278;49.732;7.690;2023-04-03T02:04:30;3.00;99.90
61412;DHT22;47278;49.732;7.690;2023-04-03T02:06:55;2.90;99.90
61412;DHT22;47278;49.732;7.690;2023-04-03T02:09:21;2.70;99.90
61412;DHT22;47278;49.732;7.690;2023-04-03T02:11:46;2.70;99.90
61412;DHT22;47278;49.732;7.690;2023-04-03T02:14:12;2.60;99.90
61412;DHT22;47278;49.732;7.690;2023-04-03T02:16:37;2.60;99.90
61412;DHT22;47278;49.732;7.690;2023-04-03T02:19:03;2.70;99.90
61412;DHT22;47278;49.732;7.690;2023-04-03T02:21:28;2.50;99.90
61412;DHT22;47278;49.732;7.690;2023-04-03T02:23:54;4.50;99.90
61412;DHT22;47278;49.732;7.690;2023-04-03T02:26:20;2.20;99.90
61412;DHT22;47278;49.732;7.690;2023-04-03T02:28:46;2.20;99.90
61412;DHT22;47278;49.732;7.690;2023-04-03T02:31:11;2.20;99.90
61412;DHT22;47278;49.732;7.690;2023-04-03T02:33:38;2.10;99.90
61412;DHT22;47278;49.732;7.690;2023-04-03T02:36:04;2.00;99.90
61412;DHT22;47278;49.732;7.690;2023-04-03T02:38:31;2.00;99.90
61412;DHT22;47278;49.732;7.690;2023-04-03T02:41:03;2.00;99.90
61412;DHT22;47278;49.732;7.690;2023-04-03T02:43:29;1.90;99.90
61412;DHT22;47278;49.732;7.690;2023-04-03T02:45:54;1.90;99.90
61412;DHT22;47278;49.732;7.690;2023-04-03T02:48:20;1.80;99.90
61412;DHT22;47278;49.732;7.690;2023-04-03T02:50:45;1.80;99.90
61412;DHT22;47278;49.732;7.690;2023-04-03T02:53:11;1.80;99.90
61412;DHT22;47278;49.732;7.690;2023-04-03T02:55:36;1.80;99.90
61412;DHT22;47278;49.732;7.690;2023-04-03T02:58:02;1.70;99.90
61412;DHT22;47278;49.732;7.690;2023-04-03T03:00:29;1.70;99.90
61412;DHT22;47278;49.732;7.690;2023-04-03T03:02:54;1.60;99.90
61412;DHT22;47278;49.732;7.690;2023-04-03T03:05:20;1.50;99.90
61412;DHT22;47278;49.732;7.690;2023-04-03T03:07:45;1.40;99.90
61412;DHT22;47278;49.732;7.690;2023-04-03T03:10:11;1.50;99.90
61412;DHT22;47278;49.732;7.690;2023-04-03T03:12:36;1.50;99.90
61412;DHT22;47278;49.732;7.690;2023-04-03T03:15:02;1.50;99.90
61412;DHT22;47278;49.732;7.690;2023-04-03T03:17:27;1.40;99.90
61412;DHT22;47278;49.732;7.690;2023-04-03T03:19:53;-0.30;99.90
61412;DHT22;47278;49.732;7.690;2023-04-03T03:22:19;1.60;99.90
61412;DHT22;47278;49.732;7.690;2023-04-03T03:24:44;1.30;99.90
61412;DHT22;47278;49.732;7.690;2023-04-03T03:27:10;1.40;99.90
61412;DHT22;47278;49.732;7.690;2023-04-03T03:29:35;1.30;99.90
61412;DHT22;47278;49.732;7.690;2023-04-03T03:32:01;1.30;99.90
61412;DHT22;47278;49.732;7.690;2023-04-03T03:34:26;1.30;99.90
61412;DHT22;47278;49.732;7.690;2023-04-03T03:36:52;1.20;99.90
61412;DHT22;47278;49.732;7.690;2023-04-03T03:39:17;1.10;99.90
61412;DHT22;47278;49.732;7.690;2023-04-03T03:41:43;0.80;99.90
61412;DHT22;47278;49.732;7.690;2023-04-03T03:44:08;1.00;99.90
61412;DHT22;47278;49.732;7.690;2023-04-03T03:46:34;1.10;99.90
61412;DHT22;47278;49.732;7.690;2023-04-03T03:48:59;1.00;99.90
61412;DHT22;47278;49.732;7.690;2023-04-03T03:51:25;0.90;99.90
61412;DHT22;47278;49.732;7.690;2023-04-03T03:53:50;0.90;99.90
61412;DHT22;47278;49.732;7.690;2023-04-03T03:56:16;1.00;99.90
61412;DHT22;47278;49.732;7.690;2023-04-03T03:58:41;0.80;99.90
61412;DHT22;47278;49.732;7.690;2023-04-03T04:01:07;1.10;99.90
61412;DHT22;47278;49.732;7.690;2023-04-03T04:03:32;0.80;99.90
61412;DHT22;47278;49.732;7.690;2023-04-03T04:05:58;0.70;99.90
61412;DHT22;47278;49.732;7.690;2023-04-03T04:08:24;0.70;99.90
61412;DHT22;47278;49.732;7.690;2023-04-03T04:10:50;0.60;99.90
61412;DHT22;47278;49.732;7.690;2023-04-03T04:13:15;0.60;99.90
61412;DHT22;47278;49.732;7.690;2023-04-03T04:15:41;0.60;99.90
61412;DHT22;47278;49.732;7.690;2023-04-03T04:18:07;0.70;99.90
61412;DHT22;47278;49.732;7.690;2023-04-03T04:20:32;0.70;99.90
61412;DHT22;47278;49.732;7.690;2023-04-03T04:22:58;0.70;99.90
61412;DHT22;47278;49.732;7.690;2023-04-03T04:25:23;1.60;99.90
61412;DHT22;47278;49.732;7.690;2023-04-03T04:27:49;0.60;99.90
61412;DHT22;47278;49.732;7.690;2023-04-03T04:30:15;0.60;99.90
61412;DHT22;47278;49.732;7.690;2023-04-03T04:32:41;0.60;99.90
61412;DHT22;47278;49.732;7.690;2023-04-03T04:35:06;0.60;99.90
61412;DHT22;47278;49.732;7.690;2023-04-03T04:37:32;0.60;99.90
61412;DHT22;47278;49.732;7.690;2023-04-03T04:39:58;0.60;99.90
61412;DHT22;47278;49.732;7.690;2023-04-03T04:42:23;0.50;99.90
61412;DHT22;47278;49.732;7.690;2023-04-03T04:44:49;0.50;99.90
61412;DHT22;47278;49.732;7.690;2023-04-03T04:47:14;0.50;99.90
61412;DHT22;47278;49.732;7.690;2023-04-03T04:49:40;0.50;99.90
61412;DHT22;47278;49.732;7.690;2023-04-03T04:52:05;0.70;99.90
61412;DHT22;47278;49.732;7.690;2023-04-03T04:54:32;0.50;99.90
61412;DHT22;47278;49.732;7.690;2023-04-03T04:56:58;0.50;99.90
61412;DHT22;47278;49.732;7.690;2023-04-03T04:59:23;0.50;99.90
61412;DHT22;47278;49.732;7.690;2023-04-03T05:01:49;0.50;99.90
61412;DHT22;47278;49.732;7.690;2023-04-03T05:04:15;0.50;99.90
61412;DHT22;47278;49.732;7.690;2023-04-03T05:06:41;0.50;99.90
61412;DHT22;47278;49.732;7.690;2023-04-03T05:09:06;0.60;99.90
61412;DHT22;47278;49.732;7.690;2023-04-03T05:11:32;0.60;99.90
61412;DHT22;47278;49.732;7.690;2023-04-03T05:13:58;0.60;99.90
61412;DHT22;47278;49.732;7.690;2023-04-03T05:16:24;0.50;99.90
61412;DHT22;47278;49.732;7.690;2023-04-03T05:18:50;0.40;99.90
61412;DHT22;47278;49.732;7.690;2023-04-03T05:21:16;0.40;99.90
61412;DHT22;47278;49.732;7.690;2023-04-03T05:23:43;0.30;99.90
61412;DHT22;47278;49.732;7.690;2023-04-03T05:26:09;0.30;99.90
61412;DHT22;47278;49.732;7.690;2023-04-03T05:28:35;0.30;99.90
61412;DHT22;47278;49.732;7.690;2023-04-03T05:31:02;2.70;99.90
61412;DHT22;47278;49.732;7.690;2023-04-03T05:33:27;0.40;99.90
61412;DHT22;47278;49.732;7.690;2023-04-03T05:35:54;0.40;99.90
61412;DHT22;47278;49.732;7.690;2023-04-03T05:38:19;0.30;99.90
61412;DHT22;47278;49.732;7.690;2023-04-03T05:40:46;0.40;99.90
61412;DHT22;47278;49.732;7.690;2023-04-03T05:43:11;0.40;99.90
61412;DHT22;47278;49.732;7.690;2023-04-03T05:45:37;0.40;99.90
61412;DHT22;47278;49.732;7.690;2023-04-03T05:48:03;0.30;99.90
61412;DHT22;47278;49.732;7.690;2023-04-03T05:50:28;0.40;99.90
61412;DHT22;47278;49.732;7.690;2023-04-03T05:52:57;1.00;99.90
61412;DHT22;47278;49.732;7.690;2023-04-03T05:55:24;0.60;99.90
61412;DHT22;47278;49.732;7.690;2023-04-03T05:57:49;0.70;99.90
61412;DHT22;47278;49.732;7.690;2023-04-03T06:00:16;0.70;99.90
61412;DHT22;47278;49.732;7.690;2023-04-03T06:02:42;0.70;99.90
61412;DHT22;47278;49.732;7.690;2023-04-03T06:05:09;0.70;99.90
61412;DHT22;47278;49.732;7.690;2023-04-03T06:07:36;0.90;99.90
61412;DHT22;47278;49.732;7.690;2023-04-03T06:10:03;0.90;99.90
61412;DHT22;47278;49.732;7.690;2023-04-03T06:12:29;1.00;99.90
61412;DHT22;47278;49.732;7.690;2023-04-03T06:14:55;1.20;99.90
61412;DHT22;47278;49.732;7.690;2023-04-03T06:17:21;1.40;99.90
61412;DHT22;47278;49.732;7.690;2023-04-03T06:19:47;1.60;99.90
61412;DHT22;47278;49.732;7.690;2023-04-03T06:22:13;1.60;99.90
61412;DHT22;47278;49.732;7.690;2023-04-03T06:24:39;1.80;99.90
61412;DHT22;47278;49.732;7.690;2023-04-03T06:27:05;2.00;99.90
61412;DHT22;47278;49.732;7.690;2023-04-03T06:29:31;2.10;99.90
61412;DHT22;47278;49.732;7.690;2023-04-03T06:31:56;2.20;99.90
61412;DHT22;47278;49.732;7.690;2023-04-03T06:34:22;2.10;99.90
61412;DHT22;47278;49.732;7.690;2023-04-03T06:36:48;2.20;99.90
61412;DHT22;47278;49.732;7.690;2023-04-03T06:39:20;2.30;99.90
61412;DHT22;47278;49.732;7.690;2023-04-03T06:41:47;2.30;99.90
61412;DHT22;47278;49.732;7.690;2023-04-03T06:44:13;2.30;99.90
61412;DHT22;47278;49.732;7.690;2023-04-03T06:46:41;2.40;99.90
61412;DHT22;47278;49.732;7.690;2023-04-03T06:49:07;2.50;99.90
61412;DHT22;47278;49.732;7.690;2023-04-03T06:51:33;2.80;99.90
61412;DHT22;47278;49.732;7.690;2023-04-03T06:53:59;2.80;99.90
61412;DHT22;47278;49.732;7.690;2023-04-03T06:56:26;3.10;99.90
61412;DHT22;47278;49.732;7.690;2023-04-03T06:58:52;3.20;99.90
61412;DHT22;47278;49.732;7.690;2023-04-03T07:01:20;3.40;99.90
61412;DHT22;47278;49.732;7.690;2023-04-03T07:03:46;3.40;99.90
61412;DHT22;47278;49.732;7.690;2023-04-03T07:06:15;3.60;99.90
61412;DHT22;47278;49.732;7.690;2023-04-03T07:08:41;1.40;99.90
61412;DHT22;47278;49.732;7.690;2023-04-03T07:11:08;3.90;99.90
61412;DHT22;47278;49.732;7.690;2023-04-03T07:13:34;4.00;99.90
61412;DHT22;47278;49.732;7.690;2023-04-03T07:16:00;4.10;99.90
61412;DHT22;47278;49.732;7.690;2023-04-03T07:18:26;4.50;99.90
61412;DHT22;47278;49.732;7.690;2023-04-03T07:20:52;5.00;99.90
61412;DHT22;47278;49.732;7.690;2023-04-03T07:23:18;4.20;99.90
61412;DHT22;47278;49.732;7.690;2023-04-03T07:25:45;4.20;99.90
61412;DHT22;47278;49.732;7.690;2023-04-03T07:28:12;4.30;99.90
61412;DHT22;47278;49.732;7.690;2023-04-03T07:30:45;4.50;99.90
61412;DHT22;47278;49.732;7.690;2023-04-03T07:33:12;4.60;99.90
61412;DHT22;47278;49.732;7.690;2023-04-03T07:35:39;4.70;99.90
61412;DHT22;47278;49.732;7.690;2023-04-03T07:38:04;5.00;99.90
61412;DHT22;47278;49.732;7.690;2023-04-03T07:40:31;4.70;99.90
61412;DHT22;47278;49.732;7.690;2023-04-03T07:42:56;4.70;99.90
61412;DHT22;47278;49.732;7.690;2023-04-03T07:45:22;5.00;99.90
61412;DHT22;47278;49.732;7.690;2023-04-03T07:47:48;5.20;99.90
61412;DHT22;47278;49.732;7.690;2023-04-03T07:50:14;5.20;99.90
61412;DHT22;47278;49.732;7.690;2023-04-03T07:52:40;5.30;99.90
61412;DHT22;47278;49.732;7.690;2023-04-03T07:55:06;5.40;99.90
61412;DHT22;47278;49.732;7.690;2023-04-03T07:57:32;5.40;99.90
61412;DHT22;47278;49.732;7.690;2023-04-03T07:59:58;5.30;99.90
61412;DHT22;47278;49.732;7.690;2023-04-03T08:02:23;5.10;99.90
61412;DHT22;47278;49.732;7.690;2023-04-03T08:04:49;5.00;99.90
61412;DHT22;47278;49.732;7.690;2023-04-03T08:07:15;5.10;99.90
61412;DHT22;47278;49.732;7.690;2023-04-03T08:09:41;5.30;99.90
61412;DHT22;47278;49.732;7.690;2023-04-03T08:12:07;5.60;99.90
61412;DHT22;47278;49.732;7.690;2023-04-03T08:14:33;5.70;99.90
61412;DHT22;47278;49.732;7.690;2023-04-03T08:17:00;5.80;99.90
61412;DHT22;47278;49.732;7.690;2023-04-03T08:19:26;5.90;99.90
61412;DHT22;47278;49.732;7.690;2023-04-03T08:21:53;6.10;99.90
61412;DHT22;47278;49.732;7.690;2023-04-03T08:24:19;6.10;99.90
61412;DHT22;47278;49.732;7.690;2023-04-03T08:26:44;6.20;99.90
61412;DHT22;47278;49.732;7.690;2023-04-03T08:29:10;6.40;99.90
61412;DHT22;47278;49.732;7.690;2023-04-03T08:31:36;6.30;99.90
61412;DHT22;47278;49.732;7.690;2023-04-03T08:34:02;7.30;99.90
61412;DHT22;47278;49.732;7.690;2023-04-03T08:36:28;9.60;99.90
61412;DHT22;47278;49.732;7.690;2023-04-03T08:38:55;6.60;99.90
61412;DHT22;47278;49.732;7.690;2023-04-03T08:41:40;6.80;99.90
61412;DHT22;47278;49.732;7.690;2023-04-03T08:44:25;7.20;99.90
61412;DHT22;47278;49.732;7.690;2023-04-03T08:47:11;7.00;99.90
61412;DHT22;47278;49.732;7.690;2023-04-03T08:49:53;7.00;99.90
61412;DHT22;47278;49.732;7.690;2023-04-03T08:52:27;7.10;99.90
61412;DHT22;47278;49.732;7.690;2023-04-03T08:55:02;7.00;99.90
61412;DHT22;47278;49.732;7.690;2023-04-03T08:57:39;7.10;99.90
61412;DHT22;47278;49.732;7.690;2023-04-03T09:00:18;7.40;99.90
61412;DHT22;47278;49.732;7.690;2023-04-03T09:02:50;7.60;99.90
61412;DHT22;47278;49.732;7.690;2023-04-03T09:05:29;7.90;99.90
61412;DHT22;47278;49.732;7.690;2023-04-03T09:10:38;8.40;99.90
61412;DHT22;47278;49.732;7.690;2023-04-03T09:13:12;7.70;99.90
61412;DHT22;47278;49.732;7.690;2023-04-03T09:15:38;7.30;99.90
61412;DHT22;47278;49.732;7.690;2023-04-03T09:18:13;7.30;99.90
61412;DHT22;47278;49.732;7.690;2023-04-03T09:23:44;8.20;99.90
61412;DHT22;47278;49.732;7.690;2023-04-03T09:26:17;8.80;99.90
61412;DHT22;47278;49.732;7.690;2023-04-03T09:28:43;9.10;99.90
61412;DHT22;47278;49.732;7.690;2023-04-03T09:33:46;9.80;99.90
61412;DHT22;47278;49.732;7.690;2023-04-03T09:36:13;9.10;99.90
61412;DHT22;47278;49.732;7.690;2023-04-03T09:38:39;8.60;99.90
61412;DHT22;47278;49.732;7.690;2023-04-03T09:41:07;8.50;99.90
61412;DHT22;47278;49.732;7.690;2023-04-03T09:43:35;8.90;99.90
61412;DHT22;47278;49.732;7.690;2023-04-03T09:46:23;9.00;99.90
61412;DHT22;47278;49.732;7.690;2023-04-03T09:49:01;9.40;99.90
61412;DHT22;47278;49.732;7.690;2023-04-03T09:51:28;10.10;99.90
61412;DHT22;47278;49.732;7.690;2023-04-03T09:53:55;10.30;99.90
61412;DHT22;47278;49.732;7.690;2023-04-03T09:56:32;10.40;99.90
61412;DHT22;47278;49.732;7.690;2023-04-03T10:01:30;9.70;99.90
61412;DHT22;47278;49.732;7.690;2023-04-03T10:04:16;9.60;99.90
61412;DHT22;47278;49.732;7.690;2023-04-03T10:06:51;9.30;99.90
61412;DHT22;47278;49.732;7.690;2023-04-03T10:09:23;8.80;99.90
61412;DHT22;47278;49.732;7.690;2023-04-03T10:12:01;9.20;99.90
61412;DHT22;47278;49.732;7.690;2023-04-03T10:14:28;9.20;99.90
61412;DHT22;47278;49.732;7.690;2023-04-03T10:19:34;8.00;99.90
61412;DHT22;47278;49.732;7.690;2023-04-03T10:22:16;8.20;99.90
61412;DHT22;47278;49.732;7.690;2023-04-03T10:25:21;8.20;99.90
61412;DHT22;47278;49.732;7.690;2023-04-03T10:28:22;8.00;99.90
61412;DHT22;47278;49.732;7.690;2023-04-03T10:31:00;8.00;99.90
61412;DHT22;47278;49.732;7.690;2023-04-03T10:36:45;7.50;99.90
61412;DHT22;47278;49.732;7.690;2023-04-03T10:58:38;9.20;99.90
61412;DHT22;47278;49.732;7.690;2023-04-03T11:01:18;10.20;99.90
61412;DHT22;47278;49.732;7.690;2023-04-03T11:03:47;9.90;99.90
61412;DHT22;47278;49.732;7.690;2023-04-03T11:06:16;10.20;99.90
61412;DHT22;47278;49.732;7.690;2023-04-03T11:08:50;9.80;99.90
61412;DHT22;47278;49.732;7.690;2023-04-03T11:11:30;9.10;99.90
61412;DHT22;47278;49.732;7.690;2023-04-03T11:14:05;8.50;99.90
61412;DHT22;47278;49.732;7.690;2023-04-03T11:16:39;8.40;99.90
61412;DHT22;47278;49.732;7.690;2023-04-03T11:19:22;8.60;99.90
61412;DHT22;47278;49.732;7.690;2023-04-03T11:21:57;9.40;99.90
61412;DHT22;47278;49.732;7.690;2023-04-03T11:24:29;9.10;99.90
61412;DHT22;47278;49.732;7.690;2023-04-03T11:26:57;9.40;99.90
61412;DHT22;47278;49.732;7.690;2023-04-03T11:29:31;9.20;99.90
61412;DHT22;47278;49.732;7.690;2023-04-03T11:34:40;8.40;99.90
61412;DHT22;47278;49.732;7.690;2023-04-03T11:42:42;9.50;99.90
61412;DHT22;47278;49.732;7.690;2023-04-03T11:48:02;9.20;99.90
61412;DHT22;47278;49.732;7.690;2023-04-03T12:14:04;10.00;99.90
61412;DHT22;47278;49.732;7.690;2023-04-03T12:16:45;9.30;99.90
61412;DHT22;47278;49.732;7.690;2023-04-03T12:24:30;8.90;99.90
61412;DHT22;47278;49.732;7.690;2023-04-03T12:32:46;9.20;99.90
61412;DHT22;47278;49.732;7.690;2023-04-03T12:35:35;10.00;99.90
61412;DHT22;47278;49.732;7.690;2023-04-03T12:38:48;10.00;99.90
61412;DHT22;47278;49.732;7.690;2023-04-03T12:46:50;9.40;99.90
61412;DHT22;47278;49.732;7.690;2023-04-03T12:49:38;9.30;99.90
61412;DHT22;47278;49.732;7.690;2023-04-03T12:52:16;9.10;99.90
61412;DHT22;47278;49.732;7.690;2023-04-03T12:54:45;9.50;99.90
61412;DHT22;47278;49.732;7.690;2023-04-03T12:57:17;10.30;99.90
61412;DHT22;47278;49.732;7.690;2023-04-03T12:59:43;11.10;99.90
61412;DHT22;47278;49.732;7.690;2023-04-03T13:02:26;11.50;99.90
61412;DHT22;47278;49.732;7.690;2023-04-03T13:04:55;11.00;99.90
61412;DHT22;47278;49.732;7.690;2023-04-03T13:07:26;10.20;99.90
61412;DHT22;47278;49.732;7.690;2023-04-03T13:12:34;9.50;99.90
61412;DHT22;47278;49.732;7.690;2023-04-03T13:15:11;9.80;99.90
61412;DHT22;47278;49.732;7.690;2023-04-03T13:17:42;9.70;99.90
61412;DHT22;47278;49.732;7.690;2023-04-03T13:20:29;9.50;99.90
61412;DHT22;47278;49.732;7.690;2023-04-03T13:23:05;9.20;99.90
61412;DHT22;47278;49.732;7.690;2023-04-03T13:25:36;9.00;99.90
61412;DHT22;47278;49.732;7.690;2023-04-03T13:28:07;9.20;99.90
61412;DHT22;47278;49.732;7.690;2023-04-03T13:30:35;9.40;99.90
61412;DHT22;47278;49.732;7.690;2023-04-03T13:33:04;10.60;99.90
61412;DHT22;47278;49.732;7.690;2023-04-03T13:35:37;11.10;99.90
61412;DHT22;47278;49.732;7.690;2023-04-03T13:38:21;10.40;99.90
61412;DHT22;47278;49.732;7.690;2023-04-03T13:40:59;9.70;99.90
61412;DHT22;47278;49.732;7.690;2023-04-03T13:43:31;9.20;99.90
61412;DHT22;47278;49.732;7.690;2023-04-03T13:46:24;12.40;99.90
61412;DHT22;47278;49.732;7.690;2023-04-03T13:48:53;10.80;99.90
61412;DHT22;47278;49.732;7.690;2023-04-03T13:53:58;10.50;99.90
61412;DHT22;47278;49.732;7.690;2023-04-03T13:56:36;11.00;99.90
61412;DHT22;47278;49.732;7.690;2023-04-03T14:01:54;9.70;99.90
61412;DHT22;47278;49.732;7.690;2023-04-03T14:04:26;9.10;99.90
61412;DHT22;47278;49.732;7.690;2023-04-03T14:06:54;9.30;99.90
61412;DHT22;47278;49.732;7.690;2023-04-03T14:09:21;10.10;99.90
61412;DHT22;47278;49.732;7.690;2023-04-03T14:11:49;11.10;99.90
61412;DHT22;47278;49.732;7.690;2023-04-03T14:14:36;11.50;99.90
61412;DHT22;47278;49.732;7.690;2023-04-03T14:17:17;10.40;99.90
61412;DHT22;47278;49.732;7.690;2023-04-03T14:19:45;9.90;99.90
61412;DHT22;47278;49.732;7.690;2023-04-03T14:24:42;9.20;99.90
61412;DHT22;47278;49.732;7.690;2023-04-03T14:27:22;9.10;99.90
61412;DHT22;47278;49.732;7.690;2023-04-03T14:29:49;9.80;99.90
61412;DHT22;47278;49.732;7.690;2023-04-03T14:32:17;10.60;99.90
61412;DHT22;47278;49.732;7.690;2023-04-03T14:34:45;11.20;99.90
61412;DHT22;47278;49.732;7.690;2023-04-03T14:37:16;10.60;99.90
61412;DHT22;47278;49.732;7.690;2023-04-03T14:39:43;11.30;99.90
61412;DHT22;47278;49.732;7.690;2023-04-03T14:42:19;11.20;99.90
61412;DHT22;47278;49.732;7.690;2023-04-03T14:44:45;11.70;99.90
61412;DHT22;47278;49.732;7.690;2023-04-03T14:47:17;10.70;99.90
61412;DHT22;47278;49.732;7.690;2023-04-03T14:49:43;10.10;99.90
61412;DHT22;47278;49.732;7.690;2023-04-03T14:52:20;10.60;99.90
61412;DHT22;47278;49.732;7.690;2023-04-03T14:54:47;11.50;99.90
61412;DHT22;47278;49.732;7.690;2023-04-03T14:57:15;12.20;99.90
61412;DHT22;47278;49.732;7.690;2023-04-03T14:59:42;13.20;99.90
61412;DHT22;47278;49.732;7.690;2023-04-03T15:04:53;11.40;99.90
61412;DHT22;47278;49.732;7.690;2023-04-03T15:07:18;10.40;99.90
61412;DHT22;47278;49.732;7.690;2023-04-03T15:09:44;14.70;99.90
61412;DHT22;47278;49.732;7.690;2023-04-03T15:12:10;16.10;99.90
61412;DHT22;47278;49.732;7.690;2023-04-03T15:14:36;17.50;99.90
61412;DHT22;47278;49.732;7.690;2023-04-03T15:17:02;17.40;99.90
61412;DHT22;47278;49.732;7.690;2023-04-03T15:19:30;17.60;99.90
61412;DHT22;47278;49.732;7.690;2023-04-03T15:21:56;16.20;99.40
61412;DHT22;47278;49.732;7.690;2023-04-03T15:24:22;16.70;99.90
61412;DHT22;47278;49.732;7.690;2023-04-03T15:26:48;13.10;99.90
61412;DHT22;47278;49.732;7.690;2023-04-03T15:29:13;11.80;99.90
61412;DHT22;47278;49.732;7.690;2023-04-03T15:31:39;13.70;99.90
61412;DHT22;47278;49.732;7.690;2023-04-03T15:34:04;16.00;99.90
61412;DHT22;47278;49.732;7.690;2023-04-03T15:36:30;16.50;99.90
61412;DHT22;47278;49.732;7.690;2023-04-03T15:38:56;17.00;99.70
61412;DHT22;47278;49.732;7.690;2023-04-03T15:41:21;17.30;99.50
61412;DHT22;47278;49.732;7.690;2023-04-03T15:43:47;16.80;98.50
61412;DHT22;47278;49.732;7.690;2023-04-03T15:46:13;17.10;97.80
61412;DHT22;47278;49.732;7.690;2023-04-03T15:48:39;16.60;99.10
61412;DHT22;47278;49.732;7.690;2023-04-03T15:51:05;17.60;97.10
61412;DHT22;47278;49.732;7.690;2023-04-03T15:53:31;17.70;96.20
61412;DHT22;47278;49.732;7.690;2023-04-03T15:55:57;19.70;98.50
61412;DHT22;47278;49.732;7.690;2023-04-03T15:58:23;16.60;97.60
61412;DHT22;47278;49.732;7.690;2023-04-03T16:00:49;16.60;96.30
61412;DHT22;47278;49.732;7.690;2023-04-03T16:03:18;16.90;94.90
61412;DHT22;47278;49.732;7.690;2023-04-03T16:05:44;16.80;95.90
61412;DHT22;47278;49.732;7.690;2023-04-03T16:08:11;16.50;93.90
61412;DHT22;47278;49.732;7.690;2023-04-03T16:10:37;16.70;95.70
61412;DHT22;47278;49.732;7.690;2023-04-03T16:13:04;16.10;96.50
61412;DHT22;47278;49.732;7.690;2023-04-03T16:15:30;16.20;95.90
61412;DHT22;47278;49.732;7.690;2023-04-03T16:17:57;16.00;96.70
61412;DHT22;47278;49.732;7.690;2023-04-03T16:20:24;15.70;95.30
61412;DHT22;47278;49.732;7.690;2023-04-03T16:22:50;15.30;94.40
61412;DHT22;47278;49.732;7.690;2023-04-03T16:25:17;15.30;95.40
61412;DHT22;47278;49.732;7.690;2023-04-03T16:27:42;15.80;94.70
61412;DHT22;47278;49.732;7.690;2023-04-03T16:30:09;15.20;94.20
61412;DHT22;47278;49.732;7.690;2023-04-03T16:32:35;14.70;95.80
61412;DHT22;47278;49.732;7.690;2023-04-03T16:35:02;14.90;96.10
61412;DHT22;47278;49.732;7.690;2023-04-03T16:37:28;14.90;94.80
61412;DHT22;47278;49.732;7.690;2023-04-03T16:39:53;14.70;94.20
61412;DHT22;47278;49.732;7.690;2023-04-03T16:42:19;14.60;95.50
61412;DHT22;47278;49.732;7.690;2023-04-03T16:44:45;14.20;95.90
61412;DHT22;47278;49.732;7.690;2023-04-03T16:47:10;13.70;95.80
61412;DHT22;47278;49.732;7.690;2023-04-03T16:49:38;13.50;96.00
61412;DHT22;47278;49.732;7.690;2023-04-03T16:52:04;13.60;96.20
61412;DHT22;47278;49.732;7.690;2023-04-03T16:54:31;13.50;96.20
61412;DHT22;47278;49.732;7.690;2023-04-03T16:56:57;13.30;95.50
61412;DHT22;47278;49.732;7.690;2023-04-03T16:59:23;13.00;96.10
61412;DHT22;47278;49.732;7.690;2023-04-03T17:01:49;11.20;97.10
61412;DHT22;47278;49.732;7.690;2023-04-03T17:04:15;9.90;98.70
61412;DHT22;47278;49.732;7.690;2023-04-03T17:06:41;9.30;99.90
61412;DHT22;47278;49.732;7.690;2023-04-03T17:09:07;9.20;99.90
61412;DHT22;47278;49.732;7.690;2023-04-03T17:11:35;9.80;99.90
61412;DHT22;47278;49.732;7.690;2023-04-03T17:14:01;7.50;99.90
61412;DHT22;47278;49.732;7.690;2023-04-03T17:16:27;8.30;99.90
61412;DHT22;47278;49.732;7.690;2023-04-03T17:18:54;8.20;99.90
61412;DHT22;47278;49.732;7.690;2023-04-03T17:21:21;7.90;99.90
61412;DHT22;47278;49.732;7.690;2023-04-03T17:23:51;7.80;99.90
61412;DHT22;47278;49.732;7.690;2023-04-03T17:26:19;7.80;99.90
61412;DHT22;47278;49.732;7.690;2023-04-03T17:28:46;7.70;99.90
61412;DHT22;47278;49.732;7.690;2023-04-03T17:31:12;7.60;99.90
61412;DHT22;47278;49.732;7.690;2023-04-03T17:33:37;7.50;99.90
61412;DHT22;47278;49.732;7.690;2023-04-03T17:36:05;7.20;99.90
61412;DHT22;47278;49.732;7.690;2023-04-03T17:38:32;7.20;99.90